Time;durP1;ratioP1;P1;durP2;ratioP2;P2;SDS_P1;SDS_P2;PMS_P1;PMS_P2;Temp;Humidity;BMP_temperature;BMP_pressure;BME280_temperature;BME280_humidity;BME280_pressure;Samples;Min_cycle;Max_cycle;Signal;HPM_P1;HPM_P2
2022/11/30 00:00:17;;;;;;;;;41.50;36.25;;;;;8.70;71.68;101944.19;6159095;23;45484;-80
2022/11/30 00:02:42;;;;;;;;;39.50;34.00;;;;;8.61;71.30;101928.25;6185251;23;46067;-80
2022/11/30 00:05:08;;;;;;;;;36.75;32.00;;;;;8.57;71.59;101929.88;6184894;23;45529;-80
2022/11/30 00:07:34;;;;;;;;;39.25;34.50;;;;;8.62;71.75;101927.38;6185593;23;45367;-80
2022/11/30 00:09:59;;;;;;;;;44.25;34.00;;;;;8.66;71.71;101928.31;6181727;23;45303;-80
2022/11/30 00:12:25;;;;;;;;;40.25;34.00;;;;;8.74;71.51;101935.56;6185916;23;45282;-79
2022/11/30 00:14:50;;;;;;;;;35.50;31.25;;;;;8.65;71.49;101921.31;6158604;23;45231;-80
2022/11/30 00:17:16;;;;;;;;;35.25;32.50;;;;;8.69;71.36;101916.19;6185971;23;45301;-79
2022/11/30 00:19:41;;;;;;;;;36.00;31.75;;;;;8.60;71.41;101910.69;6159039;23;45242;-80
2022/11/30 00:22:07;;;;;;;;;42.00;35.00;;;;;8.75;71.25;101932.06;6158250;23;48107;-80
2022/11/30 00:24:32;;;;;;;;;36.25;32.50;;;;;8.63;70.90;101908.16;6185337;23;45446;-80
2022/11/30 00:26:58;;;;;;;;;43.75;33.75;;;;;8.75;71.51;101923.31;6186195;23;45328;-89
2022/11/30 00:29:23;;;;;;;;;31.25;29.25;;;;;8.78;71.28;101928.63;6184755;23;45266;-82
2022/11/30 00:31:49;;;;;;;;;35.50;31.75;;;;;8.71;71.24;101918.81;6184813;23;45503;-85
2022/11/30 00:34:14;;;;;;;;;34.75;31.75;;;;;8.76;71.25;101919.81;6160457;23;45293;-84
2022/11/30 00:36:39;;;;;;;;;28.00;25.75;;;;;8.72;71.50;101915.38;6185042;23;45554;-84
2022/11/30 00:39:05;;;;;;;;;23.00;21.25;;;;;8.67;71.02;101915.25;6157770;23;45423;-84
2022/11/30 00:41:30;;;;;;;;;34.75;32.75;;;;;8.58;71.04;101900.19;6185306;23;47674;-84
2022/11/30 00:43:56;;;;;;;;;36.00;31.50;;;;;8.73;71.09;101917.13;6187126;23;45321;-84
2022/11/30 00:46:21;;;;;;;;;31.75;25.50;;;;;8.64;71.17;101906.44;6187427;23;45244;-84
2022/11/30 00:48:46;;;;;;;;;30.50;28.00;;;;;8.68;71.17;101910.88;6159419;23;45497;-83
2022/11/30 00:51:12;;;;;;;;;36.50;29.00;;;;;8.71;71.18;101924.06;6159985;23;47593;-84
2022/11/30 00:53:38;;;;;;;;;37.00;29.25;;;;;8.70;70.65;101915.31;6184779;23;45612;-85
2022/11/30 00:56:04;;;;;;;;;32.50;31.00;;;;;8.61;71.14;101899.38;6187159;23;45431;-85
2022/11/30 00:58:29;;;;;;;;;36.25;30.25;;;;;8.68;71.41;101908.25;6185300;23;45203;-84
2022/11/30 01:00:55;;;;;;;;;33.75;26.50;;;;;8.60;71.24;101890.59;6187194;23;45269;-84
2022/11/30 01:03:20;;;;;;;;;35.75;27.75;;;;;8.66;70.96;101905.63;6187577;23;45078;-84
2022/11/30 01:05:46;;;;;;;;;35.75;28.50;;;;;8.66;71.37;101905.63;6187000;23;45345;-83
2022/11/30 01:08:12;;;;;;;;;23.50;22.75;;;;;8.61;71.38;101909.88;6160454;23;45096;-84
2022/11/30 01:10:39;;;;;;;;;31.50;25.75;;;;;8.62;71.03;101906.38;6184821;23;47175;-84
2022/11/30 01:13:05;;;;;;;;;31.25;28.25;;;;;8.68;71.24;101914.38;6160536;23;45213;-84
2022/11/30 01:15:35;;;;;;;;;30.00;27.50;;;;;8.58;71.19;101902.81;6185236;23;45356;-84
2022/11/30 01:18:01;;;;;;;;;32.75;26.50;;;;;8.70;71.13;101917.94;6187458;23;45420;-83
2022/11/30 01:20:26;;;;;;;;;31.00;26.25;;;;;8.61;71.23;101899.38;6186794;23;45952;-84
2022/11/30 01:22:51;;;;;;;;;34.50;25.25;;;;;8.72;71.29;101918.00;6187068;23;45108;-84
2022/11/30 01:25:17;;;;;;;;;32.25;25.50;;;;;8.62;71.30;101895.88;6187502;23;45391;-84
2022/11/30 01:27:42;;;;;;;;;26.00;20.25;;;;;8.70;70.92;101912.69;6187355;23;45492;-84
2022/11/30 01:30:08;;;;;;;;;34.25;26.00;;;;;8.60;71.17;101895.84;6187079;23;45584;-84
2022/11/30 01:32:34;;;;;;;;;28.75;26.00;;;;;8.72;71.20;101916.25;6185216;23;45206;-84
2022/11/30 01:34:59;;;;;;;;;25.00;20.25;;;;;8.59;71.38;101896.69;6187974;23;45214;-84
2022/11/30 01:37:24;;;;;;;;;30.25;27.00;;;;;8.71;71.18;101910.94;6187389;23;45420;-83
2022/11/30 01:39:50;;;;;;;;;29.50;24.25;;;;;8.66;71.37;101905.63;6186559;23;45569;-84
2022/11/30 01:42:18;;;;;;;;;27.00;22.75;;;;;8.63;71.10;101895.03;6160341;23;45290;-83
2022/11/30 01:44:53;;;;;;;;;36.25;24.25;;;;;8.70;71.41;101915.31;6187276;23;45207;-84
2022/11/30 01:47:25;;;;;;;;;25.25;21.25;;;;;8.58;71.02;101909.78;6184919;23;45835;-84
2022/11/30 01:49:56;;;;;;;;;26.75;23.00;;;;;8.61;71.35;101920.38;6158730;23;46969;-84
2022/11/30 01:52:28;;;;;;;;;29.00;23.75;;;;;8.57;71.42;101919.38;6160217;23;45484;-84
2022/11/30 01:55:13;;;;;;;;;28.75;26.50;;;;;8.46;71.36;101894.63;6184566;23;45178;-84
2022/11/30 01:57:46;;;;;;;;;30.00;26.00;;;;;8.58;71.43;101909.78;6186915;23;45119;-85
2022/11/30 02:00:13;;;;;;;;;22.75;18.50;;;;;8.58;71.28;101915.94;6186965;23;45440;-84
2022/11/30 02:02:54;;;;;;;;;28.25;22.75;;;;;8.50;71.24;101903.47;6186729;23;45207;-84
2022/11/30 02:05:20;;;;;;;;;29.00;23.75;;;;;8.55;71.43;101922.81;6186887;23;45423;-85
2022/11/30 02:07:46;;;;;;;;;27.00;22.25;;;;;8.47;71.39;101898.16;6187395;23;45262;-84
2022/11/30 02:10:17;;;;;;;;;22.50;17.50;;;;;8.48;71.39;101915.69;6184361;23;46892;-84
2022/11/30 02:13:10;;;;;;;;;18.50;14.50;;;;;8.51;71.39;101918.38;6187150;23;45320;-84
2022/11/30 02:15:51;;;;;;;;;19.50;18.00;;;;;8.49;71.41;101910.44;6160441;23;45284;-84
2022/11/30 02:18:25;;;;;;;;;23.75;20.00;;;;;8.48;71.40;101913.06;6187149;23;45497;-84
2022/11/30 02:21:12;;;;;;;;;21.75;19.75;;;;;8.43;71.68;101915.56;6159603;23;47145;-85
2022/11/30 02:23:41;;;;;;;;;16.50;14.50;;;;;8.43;70.94;101917.31;6159661;23;45247;-84
2022/11/30 02:26:24;;;;;;;;;20.50;16.50;;;;;8.46;71.07;101915.63;6160455;23;45256;-84
2022/11/30 02:29:02;;;;;;;;;20.75;17.75;;;;;8.47;71.22;101919.13;6159655;23;45870;-84
2022/11/30 02:31:53;;;;;;;;;21.50;16.50;;;;;8.32;71.41;101896.91;6187019;23;46511;-84
2022/11/30 02:34:24;;;;;;;;;21.50;16.75;;;;;8.31;71.35;101900.41;6184936;23;45750;-85
2022/11/30 02:36:50;;;;;;;;;22.50;17.50;;;;;8.39;71.21;101914.63;6159590;23;45296;-84
2022/11/30 02:39:19;;;;;;;;;16.50;15.75;;;;;8.37;71.49;101916.28;6159421;23;45342;-84
2022/11/30 02:41:45;;;;;;;;;20.75;15.25;;;;;8.27;70.94;101897.66;6159562;23;46522;-84
2022/11/30 02:44:11;;;;;;;;;17.25;15.00;;;;;8.36;71.52;101913.59;6160012;23;45243;-85
2022/11/30 02:47:04;;;;;;;;;22.25;18.25;;;;;8.37;71.57;101912.78;6184921;23;45228;-84
2022/11/30 02:49:42;;;;;;;;;26.25;23.50;;;;;8.34;71.40;101915.28;6185963;23;45243;-85
2022/11/30 02:52:10;;;;;;;;;23.00;18.25;;;;;8.26;71.33;101898.47;6186690;23;46017;-85
2022/11/30 02:54:35;;;;;;;;;19.75;18.50;;;;;8.28;71.36;101910.78;6184494;23;45501;-84
2022/11/30 02:57:01;;;;;;;;;23.25;20.75;;;;;8.13;71.43;101886.81;6186731;23;45332;-84
2022/11/30 02:59:27;;;;;;;;;25.50;18.25;;;;;8.17;71.52;101896.53;6186786;23;45375;-84
2022/11/30 03:01:52;;;;;;;;;25.75;22.50;;;;;8.26;71.33;101911.59;6184206;23;47862;-84
2022/11/30 03:04:17;;;;;;;;;21.75;19.00;;;;;8.17;71.52;101900.03;6184648;23;45162;-84
2022/11/30 03:06:43;;;;;;;;;21.50;20.25;;;;;8.28;71.82;101915.16;6184414;23;45370;-84
2022/11/30 03:09:08;;;;;;;;;18.75;17.75;;;;;8.18;71.73;101903.56;6186498;23;45243;-85
2022/11/30 03:11:34;;;;;;;;;23.75;18.50;;;;;8.17;71.82;101910.53;6187526;23;46124;-85
2022/11/30 03:13:59;;;;;;;;;22.00;20.00;;;;;8.20;71.88;101909.72;6186628;23;45186;-85
2022/11/30 03:16:25;;;;;;;;;20.75;19.75;;;;;8.31;71.83;101918.75;6161530;23;45223;-85
2022/11/30 03:18:50;;;;;;;;;24.25;19.00;;;;;8.31;71.93;101920.47;6186237;23;45174;-85
2022/11/30 03:21:15;;;;;;;;;24.50;19.25;;;;;8.32;71.92;101925.78;6185976;23;48205;-84
2022/11/30 03:23:41;;;;;;;;;22.75;19.50;;;;;8.35;71.91;101927.56;6186358;23;45182;-83
2022/11/30 03:26:07;;;;;;;;;25.00;19.25;;;;;8.39;71.80;101934.69;6161766;23;45284;-84
2022/11/30 03:28:34;;;;;;;;;20.75;19.25;;;;;8.41;71.90;101929.50;6188447;23;45410;-84
2022/11/30 03:30:59;;;;;;;;;27.50;22.75;;;;;8.31;72.03;101915.22;6161564;23;47186;-84
2022/11/30 03:33:25;;;;;;;;;22.25;19.75;;;;;8.42;71.51;101931.25;6160719;23;45370;-84
2022/11/30 03:36:05;;;;;;;;;20.00;16.00;;;;;8.25;71.74;101902.84;6188205;23;45232;-84
2022/11/30 03:38:31;;;;;;;;;19.75;17.25;;;;;8.25;71.47;101908.09;6186332;23;45395;-84
2022/11/30 03:41:02;;;;;;;;;24.50;19.50;;;;;8.33;71.32;101932.78;6183438;23;47573;-86
2022/11/30 03:43:27;;;;;;;;;19.00;16.50;;;;;8.33;71.38;101927.53;6188073;23;45404;-84
2022/11/30 03:45:53;;;;;;;;;23.25;18.75;;;;;8.39;71.37;101942.56;6188055;23;45206;-84
2022/11/30 03:48:18;;;;;;;;;17.25;17.25;;;;;8.29;71.32;101925.69;6187463;23;45095;-84
2022/11/30 03:50:48;;;;;;;;;25.50;20.75;;;;;8.31;71.37;101934.50;6158750;23;47961;-84
2022/11/30 03:53:14;;;;;;;;;19.25;17.00;;;;;8.34;71.09;101938.91;6184100;23;45269;-85
2022/11/30 03:55:40;;;;;;;;;24.25;17.25;;;;;8.41;71.16;101955.75;6185856;23;45384;-85
2022/11/30 03:58:05;;;;;;;;;16.75;15.50;;;;;8.36;71.57;101953.84;6186226;23;45280;-84
2022/11/30 04:00:30;;;;;;;;;17.50;17.50;;;;;8.24;71.19;101940.44;6186829;23;45634;-84
2022/11/30 04:02:56;;;;;;;;;23.50;16.50;;;;;8.29;71.29;101948.44;6159197;23;45871;-84
2022/11/30 04:05:21;;;;;;;;;16.75;15.25;;;;;8.31;70.88;101960.75;6159387;23;45356;-85
2022/11/30 04:07:46;;;;;;;;;12.00;11.00;;;;;8.22;71.16;101951.72;6186699;23;45365;-85
2022/11/30 04:10:12;;;;;;;;;17.00;14.00;;;;;8.20;71.09;101962.16;6159228;23;48093;-85
2022/11/30 04:12:37;;;;;;;;;18.00;13.00;;;;;8.22;70.88;101973.59;6187148;23;45207;-84
2022/11/30 04:15:03;;;;;;;;;17.50;14.50;;;;;8.20;71.13;101972.66;6188303;23;45250;-85
2022/11/30 04:17:28;;;;;;;;;15.50;13.25;;;;;8.09;71.21;101963.63;6188484;23;45226;-84
2022/11/30 04:19:54;;;;;;;;;8.00;8.00;;;;;8.11;71.23;101969.81;6186184;23;47060;-85
2022/11/30 04:22:19;;;;;;;;;9.75;9.25;;;;;8.08;71.20;101970.63;6185993;23;45204;-84
2022/11/30 04:24:44;;;;;;;;;13.00;10.50;;;;;8.01;71.24;101970.41;6187570;23;45191;-84
2022/11/30 04:27:10;;;;;;;;;8.25;8.25;;;;;7.97;71.47;101968.56;6187642;23;45135;-83
2022/11/30 04:29:35;;;;;;;;;10.00;10.00;;;;;8.07;71.39;101984.59;6187370;23;45296;-84
2022/11/30 04:32:00;;;;;;;;;10.25;7.50;;;;;7.92;71.44;101957.97;6187550;23;45280;-84
2022/11/30 04:34:27;;;;;;;;;8.75;8.75;;;;;7.87;71.33;101960.44;6187545;23;45243;-84
2022/11/30 04:36:52;;;;;;;;;8.00;8.00;;;;;7.95;71.39;101965.91;6159923;23;45440;-85
2022/11/30 04:39:18;;;;;;;;;9.75;8.00;;;;;7.85;71.30;101956.88;6187903;23;46296;-84
2022/11/30 04:41:43;;;;;;;;;12.50;10.50;;;;;7.83;71.29;101961.22;6160880;23;45492;-84
2022/11/30 04:44:09;;;;;;;;;6.75;5.00;;;;;7.97;71.62;101992.19;6187770;23;45395;-84
2022/11/30 04:46:35;;;;;;;;;7.00;7.00;;;;;7.93;71.45;101992.06;6185753;23;45368;-85
2022/11/30 04:49:01;;;;;;;;;7.50;7.00;;;;;7.87;71.58;101989.28;6160612;23;46439;-84
2022/11/30 04:51:26;;;;;;;;;7.50;7.50;;;;;7.80;71.46;101987.34;6187232;23;45324;-84
2022/11/30 04:53:52;;;;;;;;;10.00;9.00;;;;;7.79;71.42;101997.78;6163923;23;45304;-85
2022/11/30 04:56:17;;;;;;;;;8.75;7.75;;;;;7.73;71.52;101993.28;6186595;23;45190;-85
2022/11/30 04:58:43;;;;;;;;;9.00;8.00;;;;;7.64;71.49;101988.63;6160180;23;47197;-84
2022/11/30 05:01:08;;;;;;;;;10.00;7.75;;;;;7.62;70.94;101995.59;6187036;23;45149;-86
2022/11/30 05:03:34;;;;;;;;;8.25;7.25;;;;;7.60;72.07;101994.66;6187655;23;45182;-85
2022/11/30 05:05:59;;;;;;;;;9.75;8.00;;;;;7.49;71.41;101978.63;6187290;23;45125;-84
2022/11/30 05:08:25;;;;;;;;;4.00;4.00;;;;;7.43;71.45;101973.22;6184986;23;45961;-84
2022/11/30 05:10:52;;;;;;;;;4.75;3.75;;;;;7.58;71.63;101998.06;6159348;23;45189;-84
2022/11/30 05:13:17;;;;;;;;;8.25;7.00;;;;;7.56;71.67;101994.50;6187371;23;45347;-84
2022/11/30 05:15:44;;;;;;;;;10.50;8.00;;;;;7.52;71.22;101993.53;6184955;23;45353;-85
2022/11/30 05:18:09;;;;;;;;;8.75;8.75;;;;;7.51;71.21;101997.91;6160100;23;48051;-85
2022/11/30 05:20:35;;;;;;;;;6.50;5.25;;;;;7.37;71.14;101977.38;6184725;23;45847;-85
2022/11/30 05:23:00;;;;;;;;;8.00;6.75;;;;;7.41;71.02;101989.72;6187291;23;45269;-85
2022/11/30 05:25:25;;;;;;;;;9.75;8.50;;;;;7.27;71.14;101976.19;6159484;23;45440;-84
2022/11/30 05:27:51;;;;;;;;;8.50;7.00;;;;;7.33;70.97;101989.50;6187170;23;45268;-85
2022/11/30 05:30:16;;;;;;;;;3.50;3.00;;;;;7.16;71.17;101972.38;6187251;23;45206;-84
2022/11/30 05:32:42;;;;;;;;;7.75;6.75;;;;;7.16;71.19;101970.63;6160471;23;45248;-84
2022/11/30 05:35:08;;;;;;;;;9.50;7.25;;;;;7.27;71.36;101992.81;6160251;23;45475;-85
2022/11/30 05:37:33;;;;;;;;;9.50;8.00;;;;;7.31;71.42;101995.53;6186934;23;46294;-84
2022/11/30 05:39:58;;;;;;;;;5.00;5.00;;;;;7.21;71.62;101983.88;6186849;23;45184;-84
2022/11/30 05:42:24;;;;;;;;;7.75;7.50;;;;;7.24;71.27;101989.22;6160402;23;45738;-85
2022/11/30 05:44:49;;;;;;;;;12.75;11.00;;;;;7.22;71.32;101990.91;6187041;23;45384;-85
2022/11/30 05:47:16;;;;;;;;;11.50;9.50;;;;;7.07;71.46;101971.25;6185326;23;48407;-85
2022/11/30 05:49:41;;;;;;;;;13.00;10.00;;;;;7.23;71.46;101997.91;6160176;23;45189;-85
2022/11/30 05:52:07;;;;;;;;;14.75;12.25;;;;;7.18;71.29;101992.53;6184901;23;45167;-84
2022/11/30 05:54:33;;;;;;;;;8.00;8.00;;;;;7.24;71.43;102010.16;6186623;23;45600;-85
2022/11/30 05:56:58;;;;;;;;;11.50;8.25;;;;;7.24;71.19;101997.97;6186807;23;46499;-85
2022/11/30 05:59:24;;;;;;;;;6.00;3.00;;;;;7.13;71.21;101982.75;6186769;23;45343;-84
2022/11/30 06:01:52;;;;;;;;;7.25;4.00;;;;;7.10;71.29;101986.19;6187136;23;45308;-84
2022/11/30 06:04:18;;;;;;;;;10.50;8.00;;;;;7.09;71.17;101988.78;6187427;23;45167;-85
2022/11/30 06:06:43;;;;;;;;;6.75;6.75;;;;;7.11;71.19;101980.13;6159751;23;46903;-85
2022/11/30 06:09:09;;;;;;;;;7.00;7.00;;;;;7.15;71.16;101986.31;6186586;23;45213;-84
2022/11/30 06:11:34;;;;;;;;;7.50;6.75;;;;;7.05;70.96;101970.31;6186704;23;45186;-84
2022/11/30 06:14:00;;;;;;;;;10.00;9.00;;;;;7.05;71.39;101970.31;6186703;23;45371;-84
2022/11/30 06:16:25;;;;;;;;;9.75;9.00;;;;;7.13;71.41;101972.28;6159446;23;47149;-84
2022/11/30 06:19:11;;;;;;;;;9.00;8.50;;;;;7.17;71.28;101979.41;6184867;23;45909;-84
2022/11/30 06:21:36;;;;;;;;;8.75;7.50;;;;;7.10;71.45;101965.22;6159039;23;45229;-85
2022/11/30 06:24:02;;;;;;;;;11.50;9.00;;;;;7.21;71.05;101979.53;6186439;23;45138;-84
2022/11/30 06:26:27;;;;;;;;;10.00;9.00;;;;;7.13;71.24;101974.91;6186886;23;46470;-84
2022/11/30 06:28:52;;;;;;;;;13.50;12.00;;;;;7.08;71.24;101959.06;6186889;23;45409;-85
2022/11/30 06:31:18;;;;;;;;;9.00;9.00;;;;;7.10;71.39;101959.09;6187502;23;45328;-85
2022/11/30 06:33:43;;;;;;;;;13.75;11.75;;;;;7.25;71.48;101989.28;6160562;23;45469;-84
2022/11/30 06:36:09;;;;;;;;;11.00;11.00;;;;;7.13;71.60;101967.94;6187121;23;45355;-87
2022/11/30 06:38:34;;;;;;;;;15.50;13.00;;;;;7.20;71.34;101980.38;6186932;23;45380;-83
2022/11/30 06:41:05;;;;;;;;;11.75;10.25;;;;;7.19;71.50;101978.63;6188518;23;45499;-82
2022/11/30 06:43:33;;;;;;;;;15.00;14.75;;;;;7.31;71.54;102004.28;6159419;23;45544;-83
2022/11/30 06:45:58;;;;;;;;;17.75;16.00;;;;;7.19;71.54;101982.94;6159603;23;46038;-84
2022/11/30 06:48:23;;;;;;;;;9.00;8.00;;;;;7.24;71.63;101987.50;6186521;23;45312;-83
2022/11/30 06:50:49;;;;;;;;;11.00;11.00;;;;;7.35;71.42;102006.16;6186647;23;45213;-82
2022/11/30 06:53:14;;;;;;;;;15.25;11.00;;;;;7.33;71.71;102001.72;6159045;23;45533;-83
2022/11/30 06:55:41;;;;;;;;;13.50;11.00;;;;;7.38;71.52;102007.97;6159552;23;48193;-82
2022/11/30 06:58:08;;;;;;;;;13.25;13.25;;;;;7.28;71.73;101985.84;6159315;23;45413;-83
2022/11/30 07:00:35;;;;;;;;;14.25;12.00;;;;;7.32;71.78;101992.94;6186477;23;45407;-84
2022/11/30 07:03:01;;;;;;;;;16.00;13.50;;;;;7.37;71.56;101996.59;6159022;23;45255;-84
2022/11/30 07:05:27;;;;;;;;;17.50;15.25;;;;;7.23;71.42;101974.34;6159134;23;47162;-83
2022/11/30 07:07:52;;;;;;;;;12.50;10.50;;;;;7.41;71.50;102006.34;6186457;23;45447;-84
2022/11/30 07:10:18;;;;;;;;;12.25;9.00;;;;;7.32;71.54;101995.56;6184096;23;45329;-84
2022/11/30 07:12:44;;;;;;;;;15.75;15.25;;;;;7.33;71.42;101999.09;6158902;23;45515;-84
2022/11/30 07:15:12;;;;;;;;;16.00;12.50;;;;;7.36;71.51;101996.56;6184225;23;47265;-85
2022/11/30 07:17:37;;;;;;;;;20.00;18.25;;;;;7.28;71.79;101997.22;6186666;23;45209;-84
2022/11/30 07:20:03;;;;;;;;;15.00;13.00;;;;;7.26;71.75;101992.78;6186273;23;45253;-83
2022/11/30 07:22:29;;;;;;;;;18.00;14.50;;;;;7.32;71.50;102002.53;6185888;23;45177;-84
2022/11/30 07:27:38;;;;;;;;;19.25;18.00;;;;;7.42;71.53;102021.19;6185892;23;45278;-84
2022/11/30 07:30:04;;;;;;;;;19.00;19.00;;;;;7.31;71.92;102006.91;6180933;23;45301;-84
2022/11/30 07:32:29;;;;;;;;;24.25;20.00;;;;;7.32;71.74;102008.66;6185770;23;45248;-84
2022/11/30 07:34:55;;;;;;;;;24.50;22.00;;;;;7.32;72.16;102008.66;6157433;23;47247;-83
2022/11/30 07:37:20;;;;;;;;;17.00;13.75;;;;;7.42;71.79;102021.19;6185803;23;45306;-84
2022/11/30 07:39:45;;;;;;;;;15.00;14.00;;;;;7.43;71.72;102027.31;6185876;23;45211;-84
2022/11/30 07:42:11;;;;;;;;;19.75;17.00;;;;;7.30;71.72;102013.00;6185653;23;45172;-84
2022/11/30 07:44:36;;;;;;;;;18.00;17.25;;;;;7.34;71.74;102022.69;6185899;23;45250;-84
2022/11/30 07:47:01;;;;;;;;;14.00;13.00;;;;;7.43;71.71;102035.19;6185636;23;45284;-84
2022/11/30 07:49:27;;;;;;;;;19.25;17.50;;;;;7.38;71.68;102032.44;6184782;23;45296;-83
2022/11/30 07:51:52;;;;;;;;;34.75;25.50;;;;;7.46;71.69;102043.16;6160613;23;45427;-84
2022/11/30 07:54:18;;;;;;;;;37.50;33.50;;;;;7.50;71.64;102045.88;6186474;23;46539;-84
2022/11/30 07:56:43;;;;;;;;;27.00;22.25;;;;;7.46;71.64;102037.91;6185078;23;45521;-84
2022/11/30 07:59:09;;;;;;;;;29.25;27.50;;;;;7.49;71.65;102046.75;6187089;23;45932;-84
2022/11/30 08:01:34;;;;;;;;;30.00;27.25;;;;;7.39;71.89;102023.72;6187012;23;45578;-84
2022/11/30 08:04:00;;;;;;;;;23.25;22.75;;;;;7.54;71.67;102046.91;6186820;23;45230;-85
2022/11/30 08:06:28;;;;;;;;;20.75;18.25;;;;;7.64;71.69;102063.75;6184744;23;45685;-84
2022/11/30 08:08:57;;;;;;;;;22.25;18.50;;;;;7.58;71.63;102050.47;6159882;23;45275;-84
2022/11/30 08:11:25;;;;;;;;;22.75;17.50;;;;;7.51;71.62;102037.22;6186436;23;45492;-84
2022/11/30 08:13:52;;;;;;;;;18.25;15.50;;;;;7.67;71.59;102062.13;6186758;23;45335;-84
2022/11/30 08:16:23;;;;;;;;;26.75;20.00;;;;;7.70;71.70;102063.97;6159900;23;45348;-84
2022/11/30 08:18:48;;;;;;;;;17.00;16.50;;;;;7.67;71.57;102067.38;6159260;23;45421;-84
2022/11/30 08:21:17;;;;;;;;;20.75;19.50;;;;;7.73;71.47;102061.44;6159508;23;45515;-84
2022/11/30 08:23:45;;;;;;;;;21.50;19.00;;;;;7.62;71.37;102048.00;6186198;23;45232;-84
2022/11/30 08:26:13;;;;;;;;;18.25;17.00;;;;;7.75;71.15;102067.56;6186911;23;45180;-84
2022/11/30 08:28:41;;;;;;;;;19.75;15.00;;;;;7.72;71.72;102060.53;6159793;23;45416;-84
2022/11/30 08:31:09;;;;;;;;;20.50;18.50;;;;;7.76;71.40;102058.88;6159230;23;45783;-84
2022/11/30 08:33:36;;;;;;;;;20.00;19.00;;;;;7.74;71.85;102056.22;6186193;23;46654;-81
2022/11/30 08:36:16;;;;;;;;;24.50;21.25;;;;;7.71;71.43;102037.78;6186378;23;45384;-81
2022/11/30 08:38:43;;;;;;;;;21.50;17.25;;;;;7.75;71.34;102036.13;6158949;23;45414;-81
2022/11/30 08:41:10;;;;;;;;;19.50;17.00;;;;;7.94;71.19;102069.91;6186444;23;45424;-81
2022/11/30 08:43:35;;;;;;;;;19.00;17.75;;;;;7.90;71.11;102061.91;6158499;23;47725;-81
2022/11/30 08:46:02;;;;;;;;;24.50;19.00;;;;;7.96;71.04;102067.31;6159266;23;45267;-81
2022/11/30 08:48:28;;;;;;;;;22.50;20.00;;;;;7.96;71.21;102062.06;6159714;23;45456;-81
2022/11/30 08:50:53;;;;;;;;;29.50;21.25;;;;;8.11;70.97;102079.97;6159416;23;45472;-81
2022/11/30 08:53:19;;;;;;;;;24.75;20.50;;;;;8.04;70.98;102064.91;6184286;23;47171;-82
2022/11/30 08:55:54;;;;;;;;;26.25;23.75;;;;;8.16;70.71;102086.25;6186537;23;45380;-83
2022/11/30 08:58:22;;;;;;;;;23.75;18.50;;;;;8.20;70.51;102080.22;6161182;23;45287;-80
2022/11/30 09:00:48;;;;;;;;;19.25;14.75;;;;;8.11;70.48;102059.00;6184534;23;45258;-80
2022/11/30 09:03:13;;;;;;;;;23.00;20.00;;;;;8.08;70.35;102061.53;6158711;23;47530;-81
2022/11/30 09:05:39;;;;;;;;;22.00;20.25;;;;;8.26;70.32;102087.38;6158889;23;45336;-81
2022/11/30 09:08:04;;;;;;;;;27.50;23.00;;;;;8.11;70.53;102053.75;6159115;23;45248;-81
2022/11/30 09:10:30;;;;;;;;;24.00;20.00;;;;;8.34;70.35;102092.00;6184072;23;45270;-81
2022/11/30 09:12:55;;;;;;;;;25.50;20.75;;;;;8.36;70.21;102092.03;6159795;23;46992;-80
2022/11/30 09:15:21;;;;;;;;;22.00;21.50;;;;;8.31;70.23;102081.44;6184386;23;45146;-81
2022/11/30 09:17:48;;;;;;;;;38.00;32.25;;;;;8.28;70.33;102067.31;6159617;23;45301;-81
2022/11/30 09:20:14;;;;;;;;;26.00;22.25;;;;;8.34;70.55;102067.47;6158525;23;45407;-82
2022/11/30 09:22:40;;;;;;;;;27.50;25.00;;;;;8.40;70.54;102078.19;6186479;23;46322;-80
2022/11/30 09:25:06;;;;;;;;;24.00;19.25;;;;;8.44;69.87;102084.38;6186248;23;45312;-81
2022/11/30 09:27:32;;;;;;;;;23.00;20.75;;;;;8.44;69.88;102082.66;6184527;23;45443;-81
2022/11/30 09:29:58;;;;;;;;;21.50;19.75;;;;;8.47;70.09;102082.72;6186050;23;45112;-80
2022/11/30 09:32:23;;;;;;;;;27.75;26.50;;;;;8.51;69.84;102086.34;6158876;23;45992;-81
2022/11/30 09:34:48;;;;;;;;;23.50;22.00;;;;;8.50;69.77;102081.91;6183792;23;45659;-80
2022/11/30 09:37:16;;;;;;;;;24.50;21.25;;;;;8.48;69.78;102073.16;6159455;23;45245;-80
2022/11/30 09:39:42;;;;;;;;;27.00;25.50;;;;;8.55;69.93;102080.31;6184332;23;45448;-81
2022/11/30 09:42:19;;;;;;;;;27.50;22.50;;;;;8.71;69.82;102110.47;6158530;23;47843;-82
2022/11/30 09:44:50;;;;;;;;;21.25;18.50;;;;;8.67;69.46;102098.13;6186309;23;45196;-81
2022/11/30 09:47:26;;;;;;;;;23.75;21.00;;;;;8.66;69.53;102109.47;6159594;23;45441;-81
2022/11/30 09:49:51;;;;;;;;;36.25;31.00;;;;;8.69;69.54;102105.19;6158789;23;45442;-81
2022/11/30 09:52:25;;;;;;;;;32.25;31.00;;;;;8.59;69.40;102077.81;6186660;23;46329;-81
2022/11/30 09:54:50;;;;;;;;;27.75;25.25;;;;;8.72;69.34;102089.53;6186309;23;45202;-80
2022/11/30 09:57:30;;;;;;;;;19.50;17.25;;;;;8.83;69.17;102101.19;6186271;23;45369;-81
2022/11/30 10:00:00;;;;;;;;;26.50;22.75;;;;;8.87;69.34;102110.00;6159405;23;45302;-82
2022/11/30 10:02:29;;;;;;;;;38.75;28.75;;;;;8.80;69.12;102082.72;6186041;23;46242;-82
2022/11/30 10:04:56;;;;;;;;;28.75;23.25;;;;;8.88;68.92;102088.19;6159855;23;45395;-81
2022/11/30 10:07:24;;;;;;;;;57.00;44.00;;;;;8.99;68.82;102089.31;6186357;23;45419;-81
2022/11/30 10:09:57;;;;;;;;;32.50;28.50;;;;;8.98;68.86;102077.06;6159574;23;46023;-81
2022/11/30 10:12:51;;;;;;;;;30.25;24.25;;;;;9.17;68.80;102101.16;6159533;23;47035;-81
2022/11/30 10:15:33;;;;;;;;;25.00;21.00;;;;;9.08;68.19;102079.88;6186060;23;45388;-82
2022/11/30 10:18:23;;;;;;;;;26.50;22.25;;;;;8.96;68.30;102073.50;6187275;23;45297;-82
2022/11/30 10:21:18;;;;;;;;;21.50;19.75;;;;;9.14;68.23;102098.41;6159767;23;45544;-82
2022/11/30 10:24:00;;;;;;;;;21.75;19.25;;;;;9.14;67.86;102101.94;6183659;23;46769;-80
2022/11/30 10:26:35;;;;;;;;;22.75;16.50;;;;;9.07;67.77;102081.63;6186090;23;45332;-81
2022/11/30 10:29:31;;;;;;;;;15.75;13.50;;;;;9.14;67.68;102094.06;6181602;23;45775;-82
2022/11/30 10:31:59;;;;;;;;;25.00;24.00;;;;;9.05;67.96;102078.94;6156588;23;45726;-80
2022/11/30 10:34:32;;;;;;;;;22.00;21.00;;;;;9.19;67.97;102091.53;6173270;23;45216;-80
2022/11/30 10:37:05;;;;;;;;;19.00;18.25;;;;;9.24;67.78;102101.28;6183981;23;45364;-80
2022/11/30 10:39:46;;;;;;;;;22.50;18.00;;;;;9.19;67.74;102087.16;6181535;23;45270;-79
2022/11/30 10:42:22;;;;;;;;;23.50;19.50;;;;;9.27;67.55;102097.84;6181645;23;45309;-80
2022/11/30 10:45:04;;;;;;;;;21.25;19.75;;;;;9.28;67.57;102092.66;6184337;23;45998;-80
2022/11/30 10:47:35;;;;;;;;;24.75;19.75;;;;;9.30;67.26;102099.66;6184442;23;45224;-79
2022/11/30 10:50:02;;;;;;;;;26.00;22.00;;;;;9.20;67.13;102078.44;6154963;23;45432;-81
2022/11/30 10:52:34;;;;;;;;;24.25;23.50;;;;;9.17;67.54;102064.34;6185063;23;45272;-81
2022/11/30 10:55:00;;;;;;;;;28.00;20.75;;;;;9.17;67.48;102070.50;6157065;23;48030;-82
2022/11/30 10:57:30;;;;;;;;;24.75;20.75;;;;;9.13;67.40;102065.13;6181761;23;45696;-83
2022/11/30 10:59:58;;;;;;;;;27.25;20.50;;;;;9.07;67.32;102049.22;6157019;23;45206;-81
2022/11/30 11:02:37;;;;;;;;;20.50;18.75;;;;;9.21;67.40;102072.31;6184510;23;45410;-82
2022/11/30 11:05:25;;;;;;;;;19.50;17.00;;;;;9.22;67.22;102071.50;6157125;23;47348;-81
2022/11/30 11:07:55;;;;;;;;;20.50;18.75;;;;;9.26;67.42;102069.81;6184141;23;45222;-82
2022/11/30 11:10:27;;;;;;;;;20.00;18.25;;;;;9.26;67.37;102072.44;6155654;23;45460;-82
2022/11/30 11:12:54;;;;;;;;;28.75;22.25;;;;;9.31;67.20;102080.44;6183436;23;45505;-82
2022/11/30 11:15:28;;;;;;;;;22.00;21.00;;;;;9.37;67.46;102073.56;6156098;23;48241;-83
2022/11/30 11:18:17;;;;;;;;;20.75;19.00;;;;;9.28;67.41;102053.22;6181723;23;45716;-84
2022/11/30 11:20:42;;;;;;;;;26.25;24.25;;;;;9.35;67.23;102054.25;6156438;23;45289;-82
2022/11/30 11:23:26;;;;;;;;;21.00;18.75;;;;;9.46;67.21;102057.09;6154024;23;45780;-82
2022/11/30 11:25:52;;;;;;;;;28.50;23.25;;;;;9.61;66.99;102070.59;6156563;23;46995;-76